createdAt,value
2024-01-11T00:00:46.473Z,-14.79
2024-01-11T00:03:52.927Z,-14.81
2024-01-11T00:06:59.319Z,-14.77
2024-01-11T00:10:06.740Z,-14.77
2024-01-11T00:13:13.106Z,-14.82
2024-01-11T00:16:19.536Z,-14.89
2024-01-11T00:19:25.959Z,-14.92
2024-01-11T00:22:33.276Z,-14.86
2024-01-11T00:25:39.885Z,-14.78
2024-01-11T00:28:46.222Z,-14.83
2024-01-11T00:31:52.558Z,-14.91
2024-01-11T00:34:59.315Z,-14.98
2024-01-11T00:38:05.945Z,-15.04
2024-01-11T00:41:12.361Z,-15.08
2024-01-11T00:44:18.926Z,-15.12
2024-01-11T00:47:25.391Z,-15.15
2024-01-11T00:50:31.938Z,-15.18
2024-01-11T00:53:38.394Z,-15.23
2024-01-11T00:56:44.764Z,-15.29
2024-01-11T00:59:51.227Z,-15.36
2024-01-11T01:02:58.007Z,-15.33
2024-01-11T01:06:05.042Z,-15.33
2024-01-11T01:09:11.476Z,-15.37
2024-01-11T01:12:17.965Z,-15.31
2024-01-11T01:15:24.324Z,-15.28
2024-01-11T01:18:30.931Z,-15.27
2024-01-11T01:21:37.381Z,-15.28
2024-01-11T01:24:43.994Z,-15.34
2024-01-11T01:27:50.664Z,-15.37
2024-01-11T01:30:57.117Z,-15.37
2024-01-11T01:34:03.685Z,-15.42
2024-01-11T01:37:10.105Z,-15.47
2024-01-11T01:40:17.094Z,-15.44
2024-01-11T01:43:23.393Z,-15.36
2024-01-11T01:46:30.677Z,-15.40
2024-01-11T01:49:38.364Z,-15.46
2024-01-11T01:52:46.772Z,-15.44
2024-01-11T01:55:54.845Z,-15.49
2024-01-11T01:59:03.587Z,-15.56
2024-01-11T02:02:10.731Z,-15.59
2024-01-11T02:05:19.312Z,-15.61
2024-01-11T02:08:28.078Z,-15.62
2024-01-11T02:11:35.120Z,-15.62
2024-01-11T02:14:41.856Z,-15.62
2024-01-11T02:17:48.541Z,-15.60
2024-01-11T02:20:55.219Z,-15.59
2024-01-11T02:24:12.383Z,-15.56
2024-01-11T02:27:18.725Z,-15.50
2024-01-11T02:30:25.171Z,-15.49
2024-01-11T02:33:31.822Z,-15.48
2024-01-11T02:36:38.314Z,-15.52
2024-01-11T02:39:44.839Z,-15.58
2024-01-11T02:42:51.226Z,-15.61
2024-01-11T02:46:00.976Z,-15.68
2024-01-11T02:49:07.475Z,-15.68
2024-01-11T02:52:14.098Z,-15.70
2024-01-11T02:55:20.439Z,-15.72
2024-01-11T02:58:26.762Z,-15.73
2024-01-11T03:01:33.852Z,-15.79
2024-01-11T03:04:40.340Z,-15.86
2024-01-11T03:07:46.765Z,-15.87
2024-01-11T03:10:53.084Z,-15.87
2024-01-11T03:13:59.535Z,-15.85
2024-01-11T03:17:06.314Z,-15.81
2024-01-11T03:20:13.861Z,-15.83
2024-01-11T03:23:21.022Z,-15.88
2024-01-11T03:26:27.470Z,-15.88
2024-01-11T03:29:33.905Z,-15.84
2024-01-11T03:32:41.398Z,-15.79
2024-01-11T03:35:48.085Z,-15.74
2024-01-11T03:38:54.581Z,-15.69
2024-01-11T03:42:00.963Z,-15.70
2024-01-11T03:45:08.890Z,-15.79
2024-01-11T03:48:15.421Z,-15.78
2024-01-11T03:51:21.830Z,-15.77
2024-01-11T03:54:28.187Z,-15.84
2024-01-11T03:57:34.546Z,-15.93
2024-01-11T04:00:40.974Z,-16.01
2024-01-11T04:03:47.374Z,-16.13
2024-01-11T04:06:54.027Z,-16.33
2024-01-11T04:10:00.345Z,-16.43
2024-01-11T04:13:09.073Z,-16.41
2024-01-11T04:16:15.477Z,-16.39
2024-01-11T04:19:23.858Z,-16.32
2024-01-11T04:22:32.098Z,-16.25
2024-01-11T04:25:39.529Z,-16.24
2024-01-11T04:28:45.953Z,-16.29
2024-01-11T04:31:52.393Z,-16.32
2024-01-11T04:34:58.929Z,-16.30
2024-01-11T04:38:05.791Z,-16.19
2024-01-11T04:41:14.039Z,-16.08
2024-01-11T04:44:20.510Z,-16.04
2024-01-11T04:47:27.035Z,-16.04
2024-01-11T04:50:33.476Z,-16.08
2024-01-11T04:53:42.565Z,-16.09
2024-01-11T04:56:49.121Z,-16.06
2024-01-11T04:59:55.615Z,-16.02
2024-01-11T05:03:02.168Z,-16.00
2024-01-11T05:06:09.192Z,-16.03
2024-01-11T05:09:16.730Z,-16.15
2024-01-11T05:12:23.115Z,-16.28
2024-01-11T05:15:29.454Z,-16.32
2024-01-11T05:18:35.860Z,-16.29
2024-01-11T05:21:42.471Z,-16.25
2024-01-11T05:24:48.803Z,-16.23
2024-01-11T05:27:55.161Z,-16.21
2024-01-11T05:31:01.605Z,-16.20
2024-01-11T05:34:08.267Z,-16.16
2024-01-11T05:37:14.770Z,-16.11
2024-01-11T05:40:21.463Z,-16.10
2024-01-11T05:43:27.844Z,-16.13
2024-01-11T05:46:34.351Z,-16.12
2024-01-11T05:49:40.737Z,-16.12
2024-01-11T05:52:47.182Z,-16.18
2024-01-11T05:55:55.282Z,-16.22
2024-01-11T05:59:02.013Z,-16.21
2024-01-11T06:02:08.711Z,-16.21
2024-01-11T06:05:15.164Z,-16.19
2024-01-11T06:08:21.640Z,-16.19
2024-01-11T06:11:27.991Z,-16.17
2024-01-11T06:14:34.431Z,-16.13
2024-01-11T06:17:41.035Z,-16.22
2024-01-11T06:20:48.109Z,-16.25
2024-01-11T06:23:54.721Z,-16.20
2024-01-11T06:27:01.114Z,-16.14
2024-01-11T06:30:09.604Z,-16.10
2024-01-11T06:33:16.533Z,-16.06
2024-01-11T06:36:23.514Z,-16.04
2024-01-11T06:39:30.801Z,-15.99
2024-01-11T06:42:37.347Z,-16.01
2024-01-11T06:45:45.162Z,-16.04
2024-01-11T06:48:51.749Z,-16.02
2024-01-11T06:51:58.222Z,-15.94
2024-01-11T06:55:04.600Z,-15.92
2024-01-11T06:58:11.001Z,-15.88
2024-01-11T07:01:17.368Z,-15.90
2024-01-11T07:04:23.722Z,-15.85
2024-01-11T07:07:30.106Z,-15.91
2024-01-11T07:10:36.681Z,-15.98
2024-01-11T07:13:43.796Z,-15.98
2024-01-11T07:16:50.911Z,-16.03
2024-01-11T07:19:57.354Z,-16.05
2024-01-11T07:23:04.006Z,-16.01
2024-01-11T07:26:10.376Z,-15.93
2024-01-11T07:29:16.749Z,-15.96
2024-01-11T07:32:23.221Z,-15.90
2024-01-11T07:35:29.731Z,-15.81
2024-01-11T07:38:36.033Z,-15.68
2024-01-11T07:41:43.168Z,-15.57
2024-01-11T07:44:49.708Z,-15.48
2024-01-11T07:47:56.294Z,-15.41
2024-01-11T07:51:03.816Z,-15.32
2024-01-11T07:54:10.205Z,-15.26
2024-01-11T07:57:16.951Z,-15.13
2024-01-11T08:00:24.550Z,-15.01
2024-01-11T08:03:31.148Z,-14.95
2024-01-11T08:06:37.748Z,-14.88
2024-01-11T08:09:46.830Z,-14.75
2024-01-11T08:12:53.642Z,-14.53
2024-01-11T08:16:00.011Z,-14.30
2024-01-11T08:19:06.818Z,-14.05
2024-01-11T08:22:13.857Z,-13.78
2024-01-11T08:25:20.334Z,-13.50
2024-01-11T08:28:26.689Z,-13.16
2024-01-11T08:31:34.415Z,-12.77
2024-01-11T08:34:41.704Z,-12.36
2024-01-11T08:37:48.175Z,-12.01
2024-01-11T08:40:54.548Z,-11.74
2024-01-11T08:44:00.967Z,-11.48
2024-01-11T08:47:07.670Z,-11.21
2024-01-11T08:50:18.556Z,-11.04
2024-01-11T08:53:26.404Z,-10.90
2024-01-11T08:56:32.805Z,-10.75
2024-01-11T08:59:39.329Z,-10.58
2024-01-11T09:02:45.715Z,-10.36
2024-01-11T09:05:52.191Z,-10.11
2024-01-11T09:08:58.676Z,-9.86
2024-01-11T09:12:06.011Z,-9.61
2024-01-11T09:15:12.937Z,-9.38
2024-01-11T09:18:19.483Z,-9.11
2024-01-11T09:21:26.983Z,-8.78
2024-01-11T09:24:37.010Z,-8.41
2024-01-11T09:27:44.882Z,-8.08
2024-01-11T09:30:51.362Z,-7.72
2024-01-11T09:33:58.472Z,-7.31
2024-01-11T09:37:05.077Z,-6.85
2024-01-11T09:40:13.449Z,-6.41
2024-01-11T09:43:19.988Z,-5.94
2024-01-11T09:46:28.160Z,-5.45
2024-01-11T09:49:35.794Z,-5.06
2024-01-11T09:52:44.128Z,-4.71
2024-01-11T09:55:51.127Z,-4.38
2024-01-11T09:58:57.613Z,-4.10
2024-01-11T10:02:09.397Z,-3.79
2024-01-11T10:05:16.336Z,-3.47
2024-01-11T10:08:24.256Z,-3.18
2024-01-11T10:11:30.738Z,-2.92
2024-01-11T10:14:37.336Z,-2.69
2024-01-11T10:17:47.519Z,-2.48
2024-01-11T10:20:54.199Z,-2.29
2024-01-11T10:24:05.670Z,-2.11
2024-01-11T10:27:12.698Z,-1.93
2024-01-11T10:30:21.515Z,-1.78
2024-01-11T10:33:28.028Z,-1.66
2024-01-11T10:36:36.904Z,-1.56
2024-01-11T10:39:44.446Z,-1.49
2024-01-11T10:42:54.601Z,-1.43
2024-01-11T10:46:05.529Z,-1.39
2024-01-11T10:49:14.182Z,-1.34
2024-01-11T10:52:30.196Z,-1.29
2024-01-11T10:55:38.710Z,-1.23
2024-01-11T10:58:47.761Z,-1.18
2024-01-11T11:01:57.371Z,-1.12
2024-01-11T11:05:05.765Z,-1.07
2024-01-11T11:08:14.930Z,-1.02
2024-01-11T11:11:21.786Z,-0.99
2024-01-11T11:14:30.459Z,-0.94
2024-01-11T11:17:37.846Z,-0.86
2024-01-11T11:20:44.540Z,-0.80
2024-01-11T11:23:51.566Z,-0.75
2024-01-11T11:26:58.638Z,-0.70
2024-01-11T11:30:05.402Z,-0.64
2024-01-11T11:33:20.133Z,-0.57
2024-01-11T11:36:32.667Z,-0.53
2024-01-11T11:39:39.199Z,-0.49
2024-01-11T11:42:46.238Z,-0.43
2024-01-11T11:45:54.384Z,-0.41
2024-01-11T11:49:01.382Z,-0.43
2024-01-11T11:52:08.089Z,-0.48
2024-01-11T11:55:16.482Z,-0.50
2024-01-11T11:58:23.050Z,-0.52
2024-01-11T12:01:29.465Z,-0.54
2024-01-11T12:04:36.041Z,-0.57
2024-01-11T12:07:42.529Z,-0.60
2024-01-11T12:10:48.947Z,-0.61
2024-01-11T12:13:58.927Z,-0.57
2024-01-11T12:17:06.383Z,-0.52
2024-01-11T12:20:15.742Z,-0.51
2024-01-11T12:23:22.330Z,-0.50
2024-01-11T12:26:28.962Z,-0.50
2024-01-11T12:29:43.819Z,-0.48
2024-01-11T12:32:56.134Z,-0.44
2024-01-11T12:36:02.565Z,-0.43
2024-01-11T12:39:07.655Z,-0.43
2024-01-11T12:42:15.301Z,-0.44
2024-01-11T12:45:21.978Z,-0.44
2024-01-11T12:48:28.597Z,-0.41
2024-01-11T12:51:38.205Z,-0.38
2024-01-11T12:54:45.637Z,-0.37
2024-01-11T12:57:52.093Z,-0.34
2024-01-11T13:00:58.919Z,-0.33
2024-01-11T13:04:05.483Z,-0.33
2024-01-11T13:07:13.561Z,-0.32
2024-01-11T13:10:20.103Z,-0.33
2024-01-11T13:13:27.545Z,-0.32
2024-01-11T13:16:34.448Z,-0.31
2024-01-11T13:19:40.964Z,-0.30
2024-01-11T13:22:47.552Z,-0.29
2024-01-11T13:25:54.397Z,-0.25
2024-01-11T13:29:00.867Z,-0.20
2024-01-11T13:32:08.000Z,-0.19
2024-01-11T13:35:15.243Z,-0.16
2024-01-11T13:38:25.139Z,-0.13
2024-01-11T13:41:32.092Z,-0.08
2024-01-11T13:44:38.672Z,-0.01
2024-01-11T13:47:45.400Z,0.03
2024-01-11T13:50:51.923Z,0.04
2024-01-11T13:53:59.030Z,0.06
2024-01-11T13:57:05.759Z,0.03
2024-01-11T14:00:14.810Z,-0.04
2024-01-11T14:03:21.604Z,-0.10
2024-01-11T14:06:28.297Z,-0.18
2024-01-11T14:09:34.774Z,-0.27
2024-01-11T14:12:41.648Z,-0.35
2024-01-11T14:15:49.409Z,-0.42
2024-01-11T14:18:56.083Z,-0.49
2024-01-11T14:22:02.491Z,-0.57
2024-01-11T14:25:12.286Z,-0.61
2024-01-11T14:28:19.277Z,-0.65
2024-01-11T14:31:25.752Z,-0.68
2024-01-11T14:34:32.374Z,-0.72
2024-01-11T14:37:40.838Z,-0.77
2024-01-11T14:40:47.622Z,-0.85
2024-01-11T14:43:55.984Z,-0.94
2024-01-11T14:47:02.683Z,-1.02
2024-01-11T14:50:12.574Z,-1.06
2024-01-11T14:53:19.742Z,-1.07
2024-01-11T14:56:26.319Z,-1.10
2024-01-11T14:59:33.290Z,-1.14
2024-01-11T15:02:39.826Z,-1.22
2024-01-11T15:05:46.583Z,-1.27
2024-01-11T15:08:53.627Z,-1.36
2024-01-11T15:12:01.408Z,-1.42
2024-01-11T15:15:10.640Z,-1.48
2024-01-11T15:18:17.139Z,-1.55
2024-01-11T15:21:23.771Z,-1.60
2024-01-11T15:24:31.072Z,-1.66
2024-01-11T15:27:38.048Z,-1.72
2024-01-11T15:30:44.795Z,-1.77
2024-01-11T15:33:51.518Z,-1.87
2024-01-11T15:36:58.300Z,-1.97
2024-01-11T15:40:05.254Z,-2.04
2024-01-11T15:43:11.613Z,-2.10
2024-01-11T15:46:16.286Z,-2.15
2024-01-11T15:49:22.737Z,-2.21
2024-01-11T15:52:29.105Z,-2.30
2024-01-11T15:55:35.521Z,-2.38
2024-01-11T15:58:41.933Z,-2.41
2024-01-11T16:01:56.647Z,-2.41
2024-01-11T16:05:12.298Z,-2.45
2024-01-11T16:08:18.882Z,-2.45
2024-01-11T16:11:26.193Z,-2.45
2024-01-11T16:14:32.725Z,-2.43
2024-01-11T16:17:39.624Z,-2.41
2024-01-11T16:20:46.304Z,-2.38
2024-01-11T16:23:53.486Z,-2.39
2024-01-11T16:27:00.620Z,-2.43
2024-01-11T16:30:08.918Z,-2.43
2024-01-11T16:33:15.776Z,-2.42
2024-01-11T16:36:22.287Z,-2.44
2024-01-11T16:39:28.630Z,-2.47
2024-01-11T16:42:33.866Z,-2.49
2024-01-11T16:45:41.610Z,-2.52
2024-01-11T16:48:48.469Z,-2.54
2024-01-11T16:51:54.893Z,-2.54
2024-01-11T16:55:01.364Z,-2.52
2024-01-11T16:58:07.989Z,-2.55
2024-01-11T17:01:14.826Z,-2.58
2024-01-11T17:04:21.314Z,-2.62
2024-01-11T17:07:27.769Z,-2.64
2024-01-11T17:10:34.728Z,-2.68
2024-01-11T17:13:41.119Z,-2.68
2024-01-11T17:16:47.401Z,-2.70
2024-01-11T17:19:51.919Z,-2.70
2024-01-11T17:22:58.523Z,-2.72
2024-01-11T17:26:07.271Z,-2.75
2024-01-11T17:29:13.766Z,-2.74
2024-01-11T17:32:20.749Z,-2.77
2024-01-11T17:35:27.348Z,-2.78
2024-01-11T17:38:33.843Z,-2.79
2024-01-11T17:41:44.261Z,-2.79
2024-01-11T17:44:50.983Z,-2.76
2024-01-11T17:47:58.314Z,-2.76
2024-01-11T17:51:05.476Z,-2.77
2024-01-11T17:54:11.980Z,-2.80
2024-01-11T17:57:18.460Z,-2.79
2024-01-11T18:00:26.195Z,-2.78
2024-01-11T18:03:32.584Z,-2.78
2024-01-11T18:06:39.944Z,-2.78
2024-01-11T18:09:46.518Z,-2.78
2024-01-11T18:12:52.902Z,-2.77
2024-01-11T18:15:59.350Z,-2.78
2024-01-11T18:19:06.715Z,-2.80
2024-01-11T18:22:13.169Z,-2.78
2024-01-11T18:25:19.878Z,-2.74
2024-01-11T18:28:26.411Z,-2.72
2024-01-11T18:31:33.096Z,-2.70
2024-01-11T18:34:39.436Z,-2.71
2024-01-11T18:37:45.918Z,-2.72
2024-01-11T18:40:52.446Z,-2.75
2024-01-11T18:43:58.675Z,-2.76
2024-01-11T18:47:03.350Z,-2.78
2024-01-11T18:50:11.614Z,-2.79
2024-01-11T18:53:18.754Z,-2.80
2024-01-11T18:56:25.269Z,-2.83
2024-01-11T18:59:31.691Z,-2.84
2024-01-11T19:02:38.354Z,-2.79
2024-01-11T19:05:45.283Z,-2.74
2024-01-11T19:08:51.966Z,-2.76
2024-01-11T19:11:59.768Z,-2.78
2024-01-11T19:15:07.201Z,-2.77
2024-01-11T19:18:14.655Z,-2.80
2024-01-11T19:21:38.116Z,-2.80
2024-01-11T19:24:44.386Z,-2.81
2024-01-11T19:27:49.892Z,-2.87
2024-01-11T19:30:57.216Z,-2.88
2024-01-11T19:34:03.650Z,-2.88
2024-01-11T19:37:11.618Z,-2.88
2024-01-11T19:40:19.122Z,-2.85
2024-01-11T19:43:25.533Z,-2.84
2024-01-11T19:46:33.889Z,-2.81
2024-01-11T19:49:40.334Z,-2.81
2024-01-11T19:52:46.759Z,-2.85
2024-01-11T19:55:58.112Z,-2.90
2024-01-11T19:59:02.711Z,-2.88
2024-01-11T20:02:09.398Z,-2.87
2024-01-11T20:05:16.032Z,-2.87
2024-01-11T20:08:25.890Z,-2.88
2024-01-11T20:11:32.534Z,-2.85
2024-01-11T20:14:40.903Z,-2.82
2024-01-11T20:17:47.493Z,-2.83
2024-01-11T20:20:54.358Z,-2.84
2024-01-11T20:24:00.813Z,-2.82
2024-01-11T20:27:07.722Z,-2.78
2024-01-11T20:30:15.095Z,-2.76
2024-01-11T20:33:21.679Z,-2.75
2024-01-11T20:36:28.302Z,-2.74
2024-01-11T20:39:34.671Z,-2.73
2024-01-11T20:42:41.079Z,-2.77
2024-01-11T20:45:47.731Z,-2.77
2024-01-11T20:48:54.381Z,-2.76
2024-01-11T20:52:02.050Z,-2.75
2024-01-11T20:55:09.617Z,-2.74
2024-01-11T20:58:16.016Z,-2.75
2024-01-11T21:01:22.554Z,-2.75
2024-01-11T21:04:28.850Z,-2.74
2024-01-11T21:07:33.440Z,-2.75
2024-01-11T21:10:39.816Z,-2.75
2024-01-11T21:13:46.132Z,-2.75
2024-01-11T21:16:50.747Z,-2.75
2024-01-11T21:19:57.165Z,-2.75
2024-01-11T21:23:38.026Z,-2.76
2024-01-11T21:26:45.460Z,-2.77
2024-01-11T21:29:51.861Z,-2.77
2024-01-11T21:32:58.447Z,-2.78
2024-01-11T21:36:05.281Z,-2.78
2024-01-11T21:39:11.672Z,-2.79
2024-01-11T21:42:18.053Z,-2.79
2024-01-11T21:45:25.921Z,-2.79
2024-01-11T21:48:32.610Z,-2.78
2024-01-11T21:51:39.254Z,-2.77
2024-01-11T21:54:45.621Z,-2.78
2024-01-11T21:57:51.997Z,-2.78
2024-01-11T22:00:58.970Z,-2.77
2024-01-11T22:04:07.181Z,-2.75
2024-01-11T22:07:13.791Z,-2.75
2024-01-11T22:10:20.663Z,-2.77
2024-01-11T22:13:27.242Z,-2.75
2024-01-11T22:16:34.977Z,-2.73
2024-01-11T22:19:42.903Z,-2.75
2024-01-11T22:22:49.406Z,-2.76
2024-01-11T22:25:55.695Z,-2.76
2024-01-11T22:29:00.763Z,-2.75
2024-01-11T22:32:08.014Z,-2.75
2024-01-11T22:35:14.585Z,-2.74
2024-01-11T22:38:20.968Z,-2.74
2024-01-11T22:41:27.294Z,-2.75
2024-01-11T22:44:36.474Z,-2.75
2024-01-11T22:47:43.468Z,-2.75
2024-01-11T22:50:49.916Z,-2.74
2024-01-11T22:53:56.371Z,-2.77
2024-01-11T22:57:02.742Z,-2.78
2024-01-11T23:00:24.299Z,-2.80
2024-01-11T23:03:30.792Z,-2.78
2024-01-11T23:06:37.917Z,-2.74
2024-01-11T23:09:44.701Z,-2.72
2024-01-11T23:12:51.048Z,-2.70
2024-01-11T23:15:57.443Z,-2.67
2024-01-11T23:19:04.002Z,-2.65
2024-01-11T23:22:10.319Z,-2.64
2024-01-11T23:25:15.064Z,-2.63
2024-01-11T23:28:22.911Z,-2.62
2024-01-11T23:31:29.587Z,-2.59
2024-01-11T23:34:35.978Z,-2.57
2024-01-11T23:37:42.423Z,-2.55
2024-01-11T23:40:48.751Z,-2.53
2024-01-11T23:43:55.106Z,-2.52
2024-01-11T23:46:59.734Z,-2.49
2024-01-11T23:50:07.392Z,-2.48
2024-01-11T23:53:13.983Z,-2.49
2024-01-11T23:56:20.574Z,-2.50
2024-01-11T23:59:27.078Z,-2.54
